Hlavní strana
METAR-TAF:

METAR-TAF

Letiště :

Bermudy, Bermudy

zeměpisná šířka: 32-22N, zeměpisná délka: 064-41W, výška: 6 m

Aktuální stav počasí

Zpráva byla vytvořena před 55 minutami, v 01:55 UTC
Severovýchodní vítr 8 kt
Teplota 17°C
Vlhkost vzduchu 68%
Tlak 1025 hPa
Viditelnost 10 km a více
Skoro jasno ve výšce 3200 ft
Polojasno ve výšce 6000 ft

METAR: TXKF 220155Z 04008KT 9999 FEW032 SCT060 17/11 Q1025

Čas: 23:50 (02:50 UTC)

Předpověď počasí

Zpráva byla vytvořena před 3 hodinami a 17 minutami, v 23:33 UTC
Předpověď platná od 22 v 00 UTC do 22 v 24 UTC
Severní vítr 8 kt
Viditelnost 10 km a více
Skoro jasno ve výšce 3000 ft
Polojasno ve výšce 5000 ft
Oblačno až skoro zataženo ve výšce 30000 ft

TAF: TXKF 212333Z 2200/2224 36008KT 9999 FEW030 SCT050 BKN300

Stav a předpovědi počasí z více než 4 000 letišť (zprávy METAR a TAF).

Červené a žluté tečky na mapě představují dostupné meteorologické stanice.

Když kurzor umístíte na tečku, zobrazí se název stanice.

Pak kliknutím zobrazíte stav a předpověď počasí.

Chcete-li změnit mapu, kliknutím na zelené tlačítko se znaménkem +mapu přiblížíte, kliknutím na zelené tlačítko se znaménkem – mapu oddálíte a kliknutím na zelené šipky přejdete na sousední mapy.


METAR-TAF: